createdAt,value
2022-12-23T00:00:02.613Z,19.93
2022-12-23T00:02:32.768Z,19.77
2022-12-23T00:05:02.365Z,20.93
2022-12-23T00:07:32.108Z,21.30
2022-12-23T00:10:01.646Z,19.63
2022-12-23T00:12:46.266Z,20.47
2022-12-23T00:15:17.035Z,21.10
2022-12-23T00:17:47.971Z,19.70
2022-12-23T00:20:18.306Z,20.77
2022-12-23T00:23:00.258Z,21.30
2022-12-23T00:25:42.752Z,20.43
2022-12-23T00:28:17.047Z,21.33
2022-12-23T00:30:50.958Z,19.80
2022-12-23T00:33:22.466Z,22.00
2022-12-23T00:35:52.815Z,20.90
2022-12-23T00:38:43.289Z,20.60
2022-12-23T00:41:26.552Z,21.27
2022-12-23T00:43:58.659Z,20.60
2022-12-23T00:46:28.297Z,20.77
2022-12-23T00:49:10.532Z,20.50
2022-12-23T00:51:39.960Z,20.37
2022-12-23T00:54:10.222Z,21.50
2022-12-23T00:56:39.983Z,21.33
2022-12-23T00:59:12.124Z,21.70
2022-12-23T01:01:54.205Z,23.03
2022-12-23T01:04:36.362Z,21.27
2022-12-23T01:07:05.999Z,22.77
2022-12-23T01:09:35.723Z,22.43
2022-12-23T01:12:05.334Z,23.37
2022-12-23T01:14:37.545Z,23.03
2022-12-23T01:17:08.476Z,21.80
2022-12-23T01:19:38.432Z,22.57
2022-12-23T01:22:07.909Z,22.93
2022-12-23T01:24:37.321Z,24.10
2022-12-23T01:27:06.802Z,21.83
2022-12-23T01:29:38.758Z,23.53
2022-12-23T01:32:08.339Z,24.03
2022-12-23T01:34:37.961Z,22.87
2022-12-23T01:37:07.751Z,22.97
2022-12-23T01:39:37.229Z,23.33
2022-12-23T01:42:19.247Z,24.83
2022-12-23T01:44:56.877Z,23.47
2022-12-23T01:47:36.516Z,22.47
2022-12-23T01:50:10.348Z,23.47
2022-12-23T01:52:44.250Z,23.40
2022-12-23T01:55:14.210Z,22.93
2022-12-23T01:57:44.579Z,26.03
2022-12-23T02:00:30.045Z,24.77
2022-12-23T02:03:12.025Z,24.37
2022-12-23T02:05:41.852Z,24.77
2022-12-23T02:08:23.957Z,26.30
2022-12-23T02:11:12.564Z,25.00
2022-12-23T02:14:09.212Z,23.33
2022-12-23T02:16:47.382Z,23.23
2022-12-23T02:19:20.798Z,24.63
2022-12-23T02:22:00.336Z,24.50
2022-12-23T02:24:52.144Z,24.47
2022-12-23T02:27:33.195Z,24.70
2022-12-23T02:30:29.264Z,23.80
2022-12-23T02:33:26.188Z,25.50
2022-12-23T02:36:01.385Z,23.60
2022-12-23T02:38:33.170Z,24.93
2022-12-23T02:41:09.740Z,24.93
2022-12-23T02:43:44.769Z,26.80
2022-12-23T02:46:15.589Z,25.63
2022-12-23T02:48:52.358Z,25.80
2022-12-23T02:51:23.813Z,24.60
2022-12-23T02:53:55.737Z,23.33
2022-12-23T02:56:26.511Z,24.50
2022-12-23T02:58:59.882Z,26.30
2022-12-23T03:01:30.551Z,26.93
2022-12-23T03:04:02.772Z,23.50
2022-12-23T03:06:35.205Z,26.97
2022-12-23T03:09:04.620Z,25.77
2022-12-23T03:11:40.358Z,24.97
2022-12-23T03:14:29.867Z,25.37
2022-12-23T03:17:03.762Z,27.80
2022-12-23T03:19:42.421Z,26.00
2022-12-23T03:22:17.234Z,27.30
2022-12-23T03:24:50.733Z,25.70
2022-12-23T03:27:21.763Z,24.90
2022-12-23T03:29:57.276Z,25.00
2022-12-23T03:32:27.952Z,27.20
2022-12-23T03:35:02.012Z,25.43
2022-12-23T03:37:33.632Z,27.33
2022-12-23T03:40:07.332Z,27.00
2022-12-23T03:42:39.026Z,27.60
2022-12-23T03:45:38.727Z,28.33
2022-12-23T03:48:08.425Z,28.70
2022-12-23T03:50:42.927Z,25.60
2022-12-23T03:53:15.339Z,27.50
2022-12-23T03:55:49.093Z,27.20
2022-12-23T03:58:27.239Z,28.60
2022-12-23T04:01:01.069Z,27.83
2022-12-23T04:03:35.883Z,25.57
2022-12-23T04:06:11.991Z,27.50
2022-12-23T04:08:41.796Z,27.63
2022-12-23T04:11:11.321Z,29.77
2022-12-23T04:13:40.921Z,27.10
2022-12-23T04:16:11.075Z,27.70
2022-12-23T04:18:40.522Z,28.40
2022-12-23T04:21:12.496Z,27.20
2022-12-23T04:23:42.437Z,27.60
2022-12-23T04:26:11.970Z,27.60
2022-12-23T04:28:41.421Z,29.00
2022-12-23T04:31:10.886Z,26.80
2022-12-23T04:33:40.776Z,27.30
2022-12-23T04:36:15.446Z,29.10
2022-12-23T04:38:44.901Z,27.10
2022-12-23T04:41:14.492Z,29.00
2022-12-23T04:43:49.290Z,27.80
2022-12-23T04:46:22.129Z,29.33
2022-12-23T04:48:51.595Z,34.87
2022-12-23T04:51:23.801Z,29.67
2022-12-23T04:53:53.275Z,31.50
2022-12-23T04:56:23.018Z,32.27
2022-12-23T04:58:52.751Z,31.37
2022-12-23T05:01:22.155Z,31.57
2022-12-23T05:03:51.828Z,28.93
2022-12-23T05:06:23.811Z,30.03
2022-12-23T05:08:53.408Z,28.27
2022-12-23T05:11:22.778Z,28.90
2022-12-23T05:13:52.296Z,30.83
2022-12-23T05:16:22.192Z,31.03
2022-12-23T05:18:51.644Z,30.97
2022-12-23T05:21:23.674Z,30.90
2022-12-23T05:23:53.348Z,28.83
2022-12-23T05:26:22.793Z,29.73
2022-12-23T05:28:52.936Z,30.93
2022-12-23T05:31:22.378Z,30.60
2022-12-23T05:33:51.894Z,31.53
2022-12-23T05:36:23.922Z,30.10
2022-12-23T05:38:54.116Z,30.87
2022-12-23T05:41:23.815Z,28.67
2022-12-23T05:43:53.240Z,28.90
2022-12-23T05:46:26.618Z,28.43
2022-12-23T05:48:57.063Z,29.10
2022-12-23T05:51:29.249Z,30.30
2022-12-23T05:53:58.669Z,32.40
2022-12-23T05:56:28.305Z,29.47
2022-12-23T05:58:57.715Z,31.37
2022-12-23T06:01:27.131Z,29.13
2022-12-23T06:03:56.716Z,31.90
2022-12-23T06:06:28.995Z,31.83
2022-12-23T06:08:59.995Z,31.27
2022-12-23T06:11:30.056Z,30.53
2022-12-23T06:13:59.446Z,30.43
2022-12-23T06:16:28.941Z,34.50
2022-12-23T06:18:59.015Z,30.70
2022-12-23T06:21:31.037Z,29.40
2022-12-23T06:24:00.750Z,31.10
2022-12-23T06:26:30.554Z,33.57
2022-12-23T06:28:59.996Z,29.10
2022-12-23T06:31:29.439Z,29.07
2022-12-23T06:33:58.843Z,39.90
2022-12-23T06:36:31.077Z,30.87
2022-12-23T06:39:00.802Z,27.97
2022-12-23T06:41:30.217Z,31.07
2022-12-23T06:43:59.714Z,31.00
2022-12-23T06:46:29.219Z,27.63
2022-12-23T06:48:58.749Z,29.50
2022-12-23T06:51:31.361Z,27.83
2022-12-23T06:54:01.949Z,37.10
2022-12-23T06:56:31.444Z,25.53
2022-12-23T06:59:00.851Z,27.97
2022-12-23T07:01:30.294Z,25.40
2022-12-23T07:03:59.820Z,25.47
2022-12-23T07:06:31.961Z,29.53
2022-12-23T07:09:01.818Z,29.43
2022-12-23T07:11:31.293Z,27.37
2022-12-23T07:14:00.696Z,26.77
2022-12-23T07:16:30.105Z,27.97
2022-12-23T07:18:59.613Z,24.97
2022-12-23T07:21:31.610Z,30.47
2022-12-23T07:24:01.329Z,23.63
2022-12-23T07:26:30.859Z,35.70
2022-12-23T07:29:00.277Z,26.43
2022-12-23T07:31:29.776Z,27.60
2022-12-23T07:33:59.446Z,26.23
2022-12-23T07:36:31.706Z,23.83
2022-12-23T07:39:01.241Z,26.97
2022-12-23T07:41:30.622Z,26.50
2022-12-23T07:44:00.089Z,23.90
2022-12-23T07:46:30.078Z,27.67
2022-12-23T07:48:59.615Z,23.67
2022-12-23T07:51:34.617Z,25.33
2022-12-23T07:54:04.048Z,20.07
2022-12-23T07:56:33.487Z,20.97
2022-12-23T07:59:02.924Z,21.50
2022-12-23T08:01:32.514Z,20.40
2022-12-23T08:04:02.230Z,20.63
2022-12-23T08:06:34.259Z,25.27
2022-12-23T08:09:03.693Z,22.33
2022-12-23T08:11:33.069Z,26.20
2022-12-23T08:14:02.515Z,23.50
2022-12-23T08:16:34.316Z,24.00
2022-12-23T08:19:07.357Z,21.57
2022-12-23T08:21:41.893Z,21.90
2022-12-23T08:24:11.437Z,36.67
2022-12-23T08:26:40.924Z,24.00
2022-12-23T08:29:10.343Z,23.03
2022-12-23T08:31:39.907Z,20.87
2022-12-23T08:34:09.345Z,22.40
2022-12-23T08:36:42.494Z,24.20
2022-12-23T08:39:13.155Z,20.60
2022-12-23T08:41:44.850Z,20.27
2022-12-23T08:44:14.989Z,23.43
2022-12-23T08:46:45.012Z,20.13
2022-12-23T08:49:14.941Z,20.13
2022-12-23T08:51:46.942Z,20.17
2022-12-23T08:54:17.432Z,20.43
2022-12-23T08:56:47.047Z,20.10
2022-12-23T08:59:19.592Z,22.47
2022-12-23T09:01:50.427Z,21.10
2022-12-23T09:04:20.179Z,20.03
2022-12-23T09:06:52.241Z,20.57
2022-12-23T09:09:22.155Z,22.93
2022-12-23T09:11:51.558Z,23.93
2022-12-23T09:14:21.002Z,21.00
2022-12-23T09:16:52.869Z,19.80
2022-12-23T09:19:22.466Z,19.77
2022-12-23T09:21:54.587Z,20.73
2022-12-23T09:24:27.358Z,22.03
2022-12-23T09:26:56.929Z,20.47
2022-12-23T09:29:26.466Z,21.30
2022-12-23T09:31:56.029Z,21.13
2022-12-23T09:34:26.704Z,21.77
2022-12-23T09:36:58.738Z,19.80
2022-12-23T09:39:28.405Z,19.53
2022-12-23T09:42:05.639Z,21.30
2022-12-23T09:44:43.221Z,20.10
2022-12-23T09:47:17.443Z,25.57
2022-12-23T09:49:51.646Z,19.77
2022-12-23T09:52:33.076Z,20.17
2022-12-23T09:55:02.567Z,21.80
2022-12-23T09:57:37.643Z,21.67
2022-12-23T10:00:10.676Z,23.13
2022-12-23T10:02:47.978Z,20.40
2022-12-23T10:05:26.546Z,21.47
2022-12-23T10:08:02.587Z,20.50
2022-12-23T10:10:36.370Z,21.20
2022-12-23T10:13:08.217Z,21.20
2022-12-23T10:15:40.605Z,21.53
2022-12-23T10:18:19.731Z,21.63
2022-12-23T10:20:53.032Z,22.83
2022-12-23T10:23:31.109Z,20.20
2022-12-23T10:26:00.757Z,19.70
2022-12-23T10:28:30.519Z,21.43
2022-12-23T10:34:02.641Z,19.20
2022-12-23T10:36:38.490Z,19.70
2022-12-23T10:39:16.898Z,19.60
2022-12-23T10:41:52.498Z,19.40
2022-12-23T10:44:50.009Z,20.53
2022-12-23T10:47:23.315Z,19.10
2022-12-23T10:50:00.322Z,19.07
2022-12-23T10:52:31.882Z,19.97
2022-12-23T10:55:04.994Z,15.67
2022-12-23T10:57:34.828Z,18.90
2022-12-23T11:00:04.573Z,18.50
2022-12-23T11:02:47.472Z,17.80
2022-12-23T11:05:30.385Z,19.27
2022-12-23T11:08:00.375Z,17.77
2022-12-23T11:10:34.301Z,16.43
2022-12-23T11:13:04.031Z,18.73
2022-12-23T11:15:35.661Z,17.30
2022-12-23T11:18:09.795Z,20.23
2022-12-23T11:20:39.586Z,18.77
2022-12-23T11:23:19.379Z,24.00
2022-12-23T11:25:52.182Z,18.53
2022-12-23T11:28:22.912Z,17.67
2022-12-23T11:30:57.346Z,18.57
2022-12-23T11:33:28.694Z,18.47
2022-12-23T11:36:06.796Z,17.10
2022-12-23T11:38:38.516Z,18.17
2022-12-23T11:41:10.819Z,19.47
2022-12-23T11:43:42.344Z,17.27
2022-12-23T11:46:28.432Z,17.30
2022-12-23T11:49:17.659Z,18.90
2022-12-23T11:51:48.286Z,18.70
2022-12-23T11:54:22.251Z,17.17
2022-12-23T11:56:55.351Z,18.93
2022-12-23T11:59:35.826Z,16.60
2022-12-23T12:02:07.586Z,18.47
2022-12-23T12:04:38.386Z,18.10
2022-12-23T12:07:08.697Z,18.43
2022-12-23T12:09:43.424Z,18.40
2022-12-23T12:12:21.080Z,21.30
2022-12-23T12:14:52.788Z,16.17
2022-12-23T12:17:26.142Z,20.00
2022-12-23T12:20:02.835Z,18.27
2022-12-23T12:22:36.678Z,19.50
2022-12-23T12:25:14.739Z,17.27
2022-12-23T12:27:50.300Z,17.10
2022-12-23T12:30:22.413Z,19.53
2022-12-23T12:32:57.502Z,17.20
2022-12-23T12:35:35.943Z,17.20
2022-12-23T12:38:09.660Z,17.87
2022-12-23T12:40:41.699Z,16.40
2022-12-23T12:43:21.822Z,17.00
2022-12-23T12:45:55.015Z,18.00
2022-12-23T12:48:34.911Z,18.53
2022-12-23T12:51:08.553Z,17.87
2022-12-23T12:53:40.243Z,17.30
2022-12-23T12:56:18.144Z,15.13
2022-12-23T12:58:50.218Z,16.73
2022-12-23T13:01:30.460Z,15.20
2022-12-23T13:04:28.076Z,15.83
2022-12-23T13:07:04.744Z,16.30
2022-12-23T13:09:50.876Z,14.53
2022-12-23T13:12:24.472Z,16.53
2022-12-23T13:15:01.715Z,15.80
2022-12-23T13:17:35.605Z,15.63
2022-12-23T13:20:12.808Z,15.33
2022-12-23T13:22:42.865Z,14.37
2022-12-23T13:25:16.019Z,28.53
2022-12-23T13:27:49.419Z,17.10
2022-12-23T13:30:24.032Z,41.20
2022-12-23T13:33:16.277Z,46.50
2022-12-23T13:36:04.922Z,22.47
2022-12-23T13:38:50.484Z,16.30
2022-12-23T13:41:26.822Z,16.20
2022-12-23T13:43:59.493Z,16.37
2022-12-23T13:46:39.526Z,13.80
2022-12-23T13:49:13.237Z,14.50
2022-12-23T13:51:47.121Z,26.60
2022-12-23T13:54:24.515Z,14.77
2022-12-23T13:57:08.060Z,15.63
2022-12-23T13:59:42.218Z,15.60
2022-12-23T14:02:46.391Z,14.57
2022-12-23T14:05:34.477Z,17.10
2022-12-23T14:08:05.860Z,16.23
2022-12-23T14:10:35.765Z,15.97
2022-12-23T14:13:08.664Z,14.87
2022-12-23T14:15:48.947Z,14.60
2022-12-23T14:18:32.782Z,13.47
2022-12-23T14:21:10.036Z,13.97
2022-12-23T14:23:50.572Z,15.43
2022-12-23T14:26:33.111Z,14.17
2022-12-23T14:29:15.583Z,14.00
2022-12-23T14:31:46.800Z,14.90
2022-12-23T14:34:36.871Z,38.80
2022-12-23T14:37:38.080Z,20.43
2022-12-23T14:40:51.369Z,42.53
2022-12-23T14:43:29.376Z,16.40
2022-12-23T14:46:00.345Z,13.83
2022-12-23T14:49:36.507Z,13.27
2022-12-23T14:51:52.892Z,15.90
2022-12-23T14:54:46.605Z,15.33
2022-12-23T14:57:30.741Z,17.50
2022-12-23T15:00:04.453Z,16.10
2022-12-23T15:02:36.705Z,15.80
2022-12-23T15:05:07.344Z,16.77
2022-12-23T15:07:40.567Z,16.77
2022-12-23T15:10:16.960Z,16.87
2022-12-23T15:12:50.040Z,17.47
2022-12-23T15:15:21.385Z,17.90
2022-12-23T15:17:54.830Z,16.00
2022-12-23T15:20:26.539Z,16.57
2022-12-23T15:23:03.005Z,16.83
2022-12-23T15:25:34.470Z,16.43
2022-12-23T15:28:05.704Z,16.40
2022-12-23T15:30:38.201Z,16.10
2022-12-23T15:33:34.816Z,16.70
2022-12-23T15:35:59.207Z,17.20
2022-12-23T15:38:33.766Z,16.37
2022-12-23T15:41:04.905Z,17.13
2022-12-23T15:43:34.902Z,17.70
2022-12-23T15:46:10.036Z,16.80
2022-12-23T15:48:40.444Z,33.87
2022-12-23T15:51:14.730Z,32.60
2022-12-23T15:53:48.449Z,18.97
2022-12-23T15:56:23.143Z,34.07
2022-12-23T15:58:53.155Z,18.53
2022-12-23T16:01:24.883Z,30.10
2022-12-23T16:03:56.430Z,22.70
2022-12-23T16:06:28.252Z,22.30
2022-12-23T16:09:09.405Z,26.83
2022-12-23T16:11:44.913Z,27.20
2022-12-23T16:14:27.842Z,25.73
2022-12-23T16:17:02.055Z,27.97
2022-12-23T16:19:42.497Z,23.07
2022-12-23T16:22:27.652Z,21.60
2022-12-23T16:25:05.721Z,20.00
2022-12-23T16:27:40.527Z,24.10
2022-12-23T16:30:19.072Z,21.47
2022-12-23T16:32:54.606Z,19.20
2022-12-23T16:35:31.382Z,21.73
2022-12-23T16:38:13.885Z,20.33
2022-12-23T16:40:48.053Z,21.53
2022-12-23T16:43:18.319Z,21.00
2022-12-23T16:45:49.060Z,21.50
2022-12-23T16:48:22.348Z,18.10
2022-12-23T16:50:52.178Z,19.87
2022-12-23T16:53:22.432Z,20.97
2022-12-23T16:56:00.301Z,21.57
2022-12-23T16:58:30.566Z,36.40
2022-12-23T17:01:00.684Z,47.83
2022-12-23T17:03:30.167Z,48.10
2022-12-23T17:05:59.889Z,44.10
2022-12-23T17:08:29.476Z,48.43
2022-12-23T17:11:01.527Z,31.97
2022-12-23T17:13:31.011Z,41.10
2022-12-23T17:16:00.543Z,21.30
2022-12-23T17:18:30.134Z,20.43
2022-12-23T17:20:59.620Z,20.73
2022-12-23T17:23:31.537Z,18.57
2022-12-23T17:26:03.619Z,19.30
2022-12-23T17:28:34.923Z,21.00
2022-12-23T17:31:10.167Z,21.97
2022-12-23T17:33:43.386Z,23.00
2022-12-23T17:36:14.017Z,21.63
2022-12-23T17:38:43.689Z,21.70
2022-12-23T17:41:20.721Z,21.80
2022-12-23T17:43:50.216Z,21.30
2022-12-23T17:46:19.812Z,24.27
2022-12-23T17:48:49.616Z,22.90
2022-12-23T17:51:20.666Z,23.07
2022-12-23T17:53:56.855Z,22.83
2022-12-23T17:56:31.135Z,21.20
2022-12-23T17:59:00.604Z,22.07
2022-12-23T18:01:31.595Z,28.47
2022-12-23T18:04:02.762Z,35.20
2022-12-23T18:06:32.319Z,27.87
2022-12-23T18:09:01.788Z,28.20
2022-12-23T18:11:37.425Z,24.40
2022-12-23T18:14:07.357Z,23.20
2022-12-23T18:16:36.944Z,24.40
2022-12-23T18:19:06.482Z,35.30
2022-12-23T18:21:36.035Z,42.83
2022-12-23T18:24:05.531Z,23.10
2022-12-23T18:26:37.534Z,31.83
2022-12-23T18:29:07.209Z,22.57
2022-12-23T18:31:36.755Z,21.50
2022-12-23T18:34:06.309Z,22.50
2022-12-23T18:36:36.421Z,20.53
2022-12-23T18:39:06.138Z,22.47
2022-12-23T18:41:38.188Z,21.23
2022-12-23T18:44:07.917Z,22.33
2022-12-23T18:46:37.532Z,21.67
2022-12-23T18:49:06.983Z,21.00
2022-12-23T18:51:36.446Z,23.77
2022-12-23T18:54:05.909Z,21.90
2022-12-23T18:56:38.041Z,20.67
2022-12-23T18:59:07.602Z,21.70
2022-12-23T19:01:37.109Z,22.93
2022-12-23T19:04:06.792Z,19.50
2022-12-23T19:06:36.306Z,20.80
2022-12-23T19:09:06.808Z,22.53
2022-12-23T19:11:38.917Z,17.60
2022-12-23T19:14:08.410Z,17.90
2022-12-23T19:16:38.936Z,21.80
2022-12-23T19:19:09.175Z,25.03
2022-12-23T19:21:38.863Z,22.13
2022-12-23T19:24:08.607Z,25.53
2022-12-23T19:26:40.689Z,19.17
2022-12-23T19:29:11.274Z,21.47
2022-12-23T19:31:40.825Z,20.90
2022-12-23T19:34:14.972Z,17.50
2022-12-23T19:36:45.107Z,19.00
2022-12-23T19:39:16.886Z,18.17
2022-12-23T19:41:49.260Z,18.30
2022-12-23T19:44:18.781Z,18.97
2022-12-23T19:46:48.290Z,27.67
2022-12-23T19:49:20.312Z,40.83
2022-12-23T19:51:50.479Z,72.50
2022-12-23T19:54:20.927Z,28.50
2022-12-23T19:56:54.770Z,25.07
2022-12-23T19:59:24.552Z,28.13
2022-12-23T20:01:54.276Z,31.00
2022-12-23T20:04:24.989Z,26.20
2022-12-23T20:06:54.561Z,24.07
2022-12-23T20:09:24.068Z,20.57
2022-12-23T20:11:56.202Z,21.17
2022-12-23T20:14:30.369Z,17.10
2022-12-23T20:17:01.672Z,15.37
2022-12-23T20:19:31.479Z,16.13
2022-12-23T20:22:00.988Z,17.47
2022-12-23T20:24:33.353Z,19.00
2022-12-23T20:27:11.030Z,17.40
2022-12-23T20:29:41.506Z,17.87
2022-12-23T20:32:11.019Z,18.10
2022-12-23T20:34:40.559Z,18.30
2022-12-23T20:37:11.776Z,21.27
2022-12-23T20:39:41.248Z,22.70
2022-12-23T20:42:13.972Z,17.63
2022-12-23T20:44:43.454Z,13.50
2022-12-23T20:47:13.084Z,18.27
2022-12-23T20:49:42.620Z,20.07
2022-12-23T20:52:12.177Z,18.07
2022-12-23T20:54:41.672Z,19.83
2022-12-23T20:57:13.845Z,18.70
2022-12-23T20:59:43.360Z,17.90
2022-12-23T21:02:15.040Z,17.50
2022-12-23T21:04:44.928Z,17.33
2022-12-23T21:07:14.405Z,17.27
2022-12-23T21:09:43.950Z,17.37
2022-12-23T21:12:16.038Z,15.10
2022-12-23T21:14:45.531Z,15.60
2022-12-23T21:17:15.047Z,15.60
2022-12-23T21:19:44.481Z,15.47
2022-12-23T21:22:13.886Z,14.80
2022-12-23T21:24:43.333Z,14.70
2022-12-23T21:27:12.837Z,13.17
2022-12-23T21:29:44.940Z,12.47
2022-12-23T21:32:14.516Z,13.90
2022-12-23T21:34:44.009Z,12.97
2022-12-23T21:37:13.541Z,11.00
2022-12-23T21:39:42.982Z,12.83
2022-12-23T21:42:13.787Z,12.17
2022-12-23T21:44:45.842Z,10.80
2022-12-23T21:47:15.437Z,10.67
2022-12-23T21:49:44.993Z,10.13
2022-12-23T21:52:14.527Z,9.17
2022-12-23T21:54:44.104Z,9.73
2022-12-23T21:57:13.553Z,7.70
2022-12-23T21:59:45.620Z,7.67
2022-12-23T22:02:18.082Z,6.67
2022-12-23T22:04:48.596Z,7.30
2022-12-23T22:07:18.075Z,7.33
2022-12-23T22:09:47.547Z,9.30
2022-12-23T22:12:17.119Z,8.30
2022-12-23T22:14:49.308Z,7.83
2022-12-23T22:17:18.824Z,7.90
2022-12-23T22:19:48.327Z,9.10
2022-12-23T22:22:17.827Z,8.07
2022-12-23T22:24:48.260Z,8.67
2022-12-23T22:27:17.761Z,18.93
2022-12-23T22:29:49.853Z,14.70
2022-12-23T22:32:19.349Z,12.87
2022-12-23T22:34:48.834Z,12.23
2022-12-23T22:37:18.367Z,12.57
2022-12-23T22:39:47.865Z,8.50
2022-12-23T22:42:17.335Z,12.10
2022-12-23T22:44:49.466Z,14.67
2022-12-23T22:47:19.101Z,13.70
2022-12-23T22:49:48.620Z,13.20
2022-12-23T22:52:18.124Z,11.93
2022-12-23T22:54:47.625Z,10.10
2022-12-23T22:57:17.219Z,8.70
2022-12-23T22:59:49.443Z,7.73
2022-12-23T23:02:18.956Z,8.80
2022-12-23T23:04:48.413Z,7.83
2022-12-23T23:07:18.048Z,7.77
2022-12-23T23:09:47.748Z,7.80
2022-12-23T23:12:17.306Z,8.57
2022-12-23T23:14:55.508Z,8.00
2022-12-23T23:17:26.859Z,8.67
2022-12-23T23:19:56.573Z,7.67
2022-12-23T23:22:27.481Z,7.93
2022-12-23T23:24:58.003Z,7.80
2022-12-23T23:27:29.620Z,7.13
2022-12-23T23:30:01.658Z,8.50
2022-12-23T23:32:31.188Z,8.67
2022-12-23T23:35:05.483Z,8.80
2022-12-23T23:37:39.905Z,10.93
2022-12-23T23:40:12.197Z,9.70
2022-12-23T23:42:41.626Z,10.10
2022-12-23T23:45:14.177Z,9.33
2022-12-23T23:47:43.631Z,8.97
2022-12-23T23:50:13.358Z,6.67
2022-12-23T23:52:42.823Z,7.73
2022-12-23T23:55:13.252Z,8.83
2022-12-23T23:57:42.794Z,8.00
